マイアミ の空港の天気 - METARとTAF

マイアミ国際空港 ( KMIA / MIA ) - アメリカ合衆国 フロリダ州マイアミ
飛行場実況気象(Metar)
観測時間07/20 17:53 EDT (07/20 21:53 UTC)
風向・風速静穏 0m/s
視程10km以上
天気現象
全天の4割程度の雲 雲底高度 850m
全天の4割程度の雲 雲底高度 1520m
全天の8割程度の雲 雲底高度 6100m
全天の8割程度の雲 雲底高度 9140m
気温31.7℃
湿度61%
気圧1017.3hPa
METARKMIA 202153Z 00000KT 10SM TS SCT028CB SCT050 BKN200 BKN300 32/23 A3004 RMK AO2 LTG DSNT E SLP173 OCNL LTGICCG VC NE TS VC NE MOV E T03170233
過去の天気等 Google飛行場航空写真 Wunderground天気予報

過去48時間のMETAR

飛行場予報(TAF)
発表時間: 7/20 18:05 EDT (7/20 22:05 UTC)
予報対象時間: 20日18時 EDT ~ 21日14時 EDT
風向・風速不定 3m/s
視程10km以上
天気現象周辺で雷
全天の4割程度の積乱雲 雲底高度 760m
全天の8割程度の雲 雲底高度 1,520m
20日18時 EDT ~ 20日19時 EDT に一時的に
風向・風速東 5m/s
20日21時 EDT から
風向・風速南南西 2m/s
視程10km以上
全天の4割程度の雲 雲底高度 760m
全天の8割程度の雲 雲底高度 7,620m
21日11時 EDT から
風向・風速南南東 4m/s
視程10km以上
天気現象周辺で雷
全天の4割程度の積乱雲 雲底高度 760m
全天の8割程度の雲 雲底高度 3,050m
KMIA 202205Z 2022/2118 VRB06KT P6SM VCTS SCT025CB BKN050
TEMPO 2022/2023 08010KT
FM210100 20004KT P6SM SCT025 BKN250
FM211500 15008KT P6SM VCTS SCT025CB BKN100